Time;durP1;ratioP1;P1;durP2;ratioP2;P2;SDS_P1;SDS_P2;PMS_P1;PMS_P2;Temp;Humidity;BMP_temperature;BMP_pressure;BME280_temperature;BME280_humidity;BME280_pressure;Samples;Min_cycle;Max_cycle;Signal;HPM_P1;HPM_P2
2023/06/11 00:02:21;;;;;;;8.93;8.13;;;;;;;20.16;74.94;95484.72;6213272;23;20460;-87
2023/06/11 00:04:49;;;;;;;8.35;7.65;;;;;;;20.13;74.81;95482.59;6213666;23;20264;-87
2023/06/11 00:07:16;;;;;;;9.32;8.45;;;;;;;20.22;74.50;95480.34;6213085;23;20174;-87
2023/06/11 00:09:42;;;;;;;10.02;9.18;;;;;;;20.24;74.65;95486.13;6212253;23;20235;-87
2023/06/11 00:12:09;;;;;;;9.73;8.82;;;;;;;20.20;74.56;95485.84;6212254;23;20200;-87
2023/06/11 00:14:36;;;;;;;8.40;7.70;;;;;;;20.06;75.56;95481.16;6211852;23;20184;-87
2023/06/11 00:17:02;;;;;;;8.27;7.30;;;;;;;20.00;76.14;95478.47;6211773;23;20197;-86
2023/06/11 00:19:32;;;;;;;9.77;8.90;;;;;;;20.06;75.83;95471.47;6212223;23;20178;-88
2023/06/11 00:22:02;;;;;;;12.50;11.18;;;;;;;19.98;76.20;95470.06;6212800;23;20275;-88
2023/06/11 00:24:29;;;;;;;11.73;10.63;;;;;;;19.99;76.11;95473.47;6212185;23;20682;-88
2023/06/11 00:26:56;;;;;;;10.35;9.45;;;;;;;20.01;75.88;95474.03;6212190;23;20173;-87
2023/06/11 00:29:22;;;;;;;10.75;9.73;;;;;;;19.98;76.26;95477.91;6212716;23;20662;-87
2023/06/11 00:31:49;;;;;;;9.80;8.95;;;;;;;20.07;75.35;95470.47;6212982;23;20198;-87
2023/06/11 00:34:15;;;;;;;10.95;9.68;;;;;;;19.95;76.11;95472.38;6213739;23;20252;-87
2023/06/11 00:36:42;;;;;;;10.23;9.23;;;;;;;19.96;76.07;95471.34;6213083;23;20274;-87
2023/06/11 00:39:11;;;;;;;9.63;8.73;;;;;;;19.86;76.75;95471.16;6212527;23;20174;-87
2023/06/11 00:41:38;;;;;;;9.65;8.80;;;;;;;19.93;75.85;95471.81;6212940;23;20213;-87
2023/06/11 00:44:05;;;;;;;9.07;8.35;;;;;;;20.01;75.52;95463.59;6213431;23;20227;-87
2023/06/11 00:46:32;;;;;;;9.70;8.80;;;;;;;19.95;76.06;95467.16;6212525;23;20540;-87
2023/06/11 00:49:00;;;;;;;9.10;8.18;;;;;;;19.87;76.14;95473.53;6211882;23;20216;-87
2023/06/11 00:51:27;;;;;;;9.43;8.65;;;;;;;19.87;76.25;95475.38;6212228;23;20193;-87
2023/06/11 00:53:54;;;;;;;8.73;7.90;;;;;;;19.81;76.13;95469.28;6211025;23;20197;-87
2023/06/11 00:56:26;;;;;;;8.57;7.82;;;;;;;19.85;76.66;95480.03;6211885;23;20687;-87
2023/06/11 00:58:53;;;;;;;8.32;7.63;;;;;;;19.76;76.96;95482.25;6212074;23;20161;-87
2023/06/11 01:01:29;;;;;;;8.32;7.53;;;;;;;19.78;77.16;95479.41;6211772;23;20236;-88
2023/06/11 01:04:00;;;;;;;8.43;7.70;;;;;;;19.83;76.91;95472.44;6212228;23;20165;-87
2023/06/11 01:06:28;;;;;;;8.95;8.05;;;;;;;19.76;76.98;95474.41;6212034;23;20162;-87
2023/06/11 01:08:57;;;;;;;8.40;7.70;;;;;;;19.66;77.48;95480.25;6212761;23;20227;-88
2023/06/11 01:11:27;;;;;;;8.27;7.57;;;;;;;19.60;78.21;95477.81;6211923;23;20198;-88
2023/06/11 01:13:53;;;;;;;7.68;7.07;;;;;;;19.57;78.14;95479.06;6211025;23;20181;-87
2023/06/11 01:16:27;;;;;;;7.80;7.10;;;;;;;19.61;78.00;95480.19;6211915;23;20193;-88
2023/06/11 01:19:03;;;;;;;8.45;7.65;;;;;;;19.58;77.85;95483.25;6211933;23;20166;-87
2023/06/11 01:21:38;;;;;;;8.18;7.47;;;;;;;19.57;77.87;95486.91;6211795;23;20197;-87
2023/06/11 01:24:16;;;;;;;7.93;7.32;;;;;;;19.53;78.62;95487.59;6211488;23;20158;-87
2023/06/11 01:26:55;;;;;;;8.70;7.90;;;;;;;19.50;78.35;95485.44;6211389;23;20192;-87
2023/06/11 01:29:24;;;;;;;8.98;8.23;;;;;;;19.47;78.61;95484.06;6212064;23;20524;-88
2023/06/11 01:31:52;;;;;;;7.88;7.28;;;;;;;19.49;78.37;95483.84;6211585;23;20200;-88
2023/06/11 01:34:25;;;;;;;8.77;7.95;;;;;;;19.48;78.40;95488.25;6212022;23;20181;-88
2023/06/11 01:36:51;;;;;;;8.23;7.53;;;;;;;19.51;77.84;95477.38;6211318;23;20204;-87
2023/06/11 01:39:19;;;;;;;7.90;7.30;;;;;;;19.59;77.78;95487.47;6210831;23;20196;-87
2023/06/11 01:41:45;;;;;;;7.95;7.30;;;;;;;19.60;77.11;95477.81;6211554;23;20200;-87
2023/06/11 01:44:12;;;;;;;7.85;7.15;;;;;;;19.57;77.27;95481.69;6212171;23;20644;-87
2023/06/11 01:46:40;;;;;;;7.43;6.82;;;;;;;19.55;77.34;95481.13;6211205;23;20816;-88
2023/06/11 01:49:07;;;;;;;7.80;7.20;;;;;;;19.51;77.88;95471.38;6211491;23;20216;-87
2023/06/11 01:51:37;;;;;;;8.07;7.47;;;;;;;19.42;78.32;95477.97;6210545;23;20197;-87
2023/06/11 01:54:03;;;;;;;8.23;7.63;;;;;;;19.39;78.85;95484.47;6211057;23;20169;-87
2023/06/11 01:56:32;;;;;;;8.10;7.40;;;;;;;19.39;78.90;95489.69;6210966;23;20201;-88
2023/06/11 01:59:01;;;;;;;8.20;7.60;;;;;;;19.36;79.13;95489.34;6211298;23;20178;-87
2023/06/11 02:01:29;;;;;;;8.70;7.93;;;;;;;19.20;79.59;95489.06;6210991;23;20201;-88
2023/06/11 02:03:57;;;;;;;8.65;7.85;;;;;;;19.15;80.22;95499.41;6211084;23;20170;-87
2023/06/11 02:06:24;;;;;;;8.13;7.53;;;;;;;19.15;80.52;95490.78;6211162;23;20174;-87
2023/06/11 02:08:50;;;;;;;8.57;7.78;;;;;;;19.08;81.30;95503.97;6212544;23;20185;-87
2023/06/11 02:14:45;;;;;;;9.15;8.40;;;;;;;19.13;81.21;95498.06;6213172;23;20153;-87
2023/06/11 02:17:11;;;;;;;8.43;7.72;;;;;;;19.17;80.97;95491.34;6212753;23;20197;-87
2023/06/11 02:19:39;;;;;;;8.98;8.07;;;;;;;19.20;80.45;95496.09;6213175;23;20181;-87
2023/06/11 02:22:06;;;;;;;9.50;8.80;;;;;;;19.09;81.20;95499.53;6213911;23;20193;-86
2023/06/11 02:24:32;;;;;;;9.85;9.05;;;;;;;18.97;82.09;95499.56;6213204;23;20173;-86
2023/06/11 02:26:58;;;;;;;9.65;8.82;;;;;;;19.09;81.00;95507.34;6213023;23;20592;-87
2023/06/11 02:29:25;;;;;;;8.90;8.10;;;;;;;19.03;81.43;95503.09;6213407;23;20184;-87
2023/06/11 02:31:51;;;;;;;9.68;8.88;;;;;;;18.99;81.84;95505.34;6212315;23;20198;-87
2023/06/11 02:34:18;;;;;;;9.60;8.70;;;;;;;18.98;81.99;95501.16;6213395;23;20621;-87
2023/06/11 02:36:45;;;;;;;8.82;8.13;;;;;;;19.04;81.18;95500.25;6212910;23;20197;-87
2023/06/11 02:39:12;;;;;;;9.02;8.23;;;;;;;18.98;81.68;95496.72;6212222;23;20192;-87
2023/06/11 02:41:38;;;;;;;9.32;8.43;;;;;;;19.00;81.75;95498.31;6212952;23;20193;-86
2023/06/11 02:44:05;;;;;;;9.35;8.55;;;;;;;18.94;82.38;95503.44;6213262;23;20185;-87
2023/06/11 02:46:34;;;;;;;9.30;8.60;;;;;;;19.00;81.40;95504.34;6213314;23;20173;-87
2023/06/11 02:49:01;;;;;;;9.45;8.75;;;;;;;18.90;81.72;95504.13;6213925;23;20209;-86
2023/06/11 02:51:27;;;;;;;10.48;9.60;;;;;;;18.81;82.98;95501.09;6213674;23;20510;-87
2023/06/11 02:53:55;;;;;;;10.20;9.30;;;;;;;18.80;83.38;95509.13;6213646;23;20173;-86
2023/06/11 02:56:21;;;;;;;10.13;9.23;;;;;;;18.78;83.05;95505.97;6213560;23;20197;-86
2023/06/11 02:58:49;;;;;;;9.05;8.30;;;;;;;18.92;82.09;95502.06;6213311;23;20181;-87
2023/06/11 03:01:15;;;;;;;9.73;8.82;;;;;;;18.84;83.16;95511.06;6212935;23;20243;-86
2023/06/11 03:03:41;;;;;;;9.77;8.98;;;;;;;18.80;83.43;95512.53;6213755;23;20227;-86
2023/06/11 03:06:09;;;;;;;10.70;9.82;;;;;;;18.69;83.92;95518.53;6213011;23;20173;-86
2023/06/11 03:08:35;;;;;;;9.88;8.98;;;;;;;18.69;84.26;95507.31;6212499;23;20232;-86
2023/06/11 03:11:06;;;;;;;10.23;9.32;;;;;;;18.67;84.44;95515.38;6213014;23;20197;-88
2023/06/11 03:13:32;;;;;;;10.13;9.32;;;;;;;18.57;85.17;95515.13;6213274;23;20188;-86
2023/06/11 03:16:04;;;;;;;10.38;9.48;;;;;;;18.56;85.31;95521.38;6212824;23;20231;-86
2023/06/11 03:18:30;;;;;;;10.52;9.57;;;;;;;18.53;85.30;95525.22;6215098;23;20162;-86
2023/06/11 03:21:02;;;;;;;10.77;9.98;;;;;;;18.50;85.81;95519.66;6213447;23;20198;-86
2023/06/11 03:23:29;;;;;;;10.38;9.40;;;;;;;18.50;85.82;95517.84;6214093;23;20174;-87
2023/06/11 03:25:55;;;;;;;10.68;9.77;;;;;;;18.45;86.12;95515.16;6214109;23;20177;-87
2023/06/11 03:28:23;;;;;;;9.90;9.10;;;;;;;18.57;85.09;95513.31;6213526;23;20181;-86
2023/06/11 03:30:56;;;;;;;10.90;9.90;;;;;;;18.43;86.55;95521.59;6213126;23;20193;-87
2023/06/11 03:33:22;;;;;;;10.52;9.45;;;;;;;18.54;85.39;95523.41;6214106;23;20180;-87
2023/06/11 03:35:49;;;;;;;10.40;9.18;;;;;;;18.51;86.05;95518.63;6212902;23;20261;-86
2023/06/11 03:38:15;;;;;;;9.43;8.73;;;;;;;18.59;85.48;95526.97;6212280;23;20197;-86
2023/06/11 03:40:42;;;;;;;10.73;9.73;;;;;;;18.49;86.19;95521.47;6213345;23;20204;-87
2023/06/11 03:43:08;;;;;;;10.70;9.90;;;;;;;18.48;86.41;95522.50;6213601;23;20185;-86
2023/06/11 03:45:38;;;;;;;9.82;9.02;;;;;;;18.46;86.33;95519.34;6213267;23;20556;-86
2023/06/11 03:48:05;;;;;;;11.15;8.95;;;;;;;18.55;85.61;95520.56;6213654;23;20204;-86
2023/06/11 03:50:32;;;;;;;9.82;9.02;;;;;;;18.58;85.42;95520.13;6212933;23;20193;-86
2023/06/11 03:52:58;;;;;;;10.38;9.40;;;;;;;18.60;85.17;95518.13;6213669;23;20233;-86
2023/06/11 03:55:27;;;;;;;9.80;8.95;;;;;;;18.61;85.24;95516.31;6213036;23;20235;-87
2023/06/11 03:57:53;;;;;;;9.80;8.98;;;;;;;18.55;85.75;95522.38;6213328;23;20197;-87
2023/06/11 04:00:20;;;;;;;9.73;8.82;;;;;;;18.53;86.09;95527.03;6213795;23;20739;-87
2023/06/11 04:02:48;;;;;;;9.98;9.07;;;;;;;18.37;87.21;95527.72;6213768;23;20174;-86
2023/06/11 04:05:15;;;;;;;10.20;9.20;;;;;;;18.43;87.38;95532.03;6213514;23;20176;-86
2023/06/11 04:07:44;;;;;;;10.43;9.52;;;;;;;18.48;86.84;95530.31;6213477;23;20181;-87
2023/06/11 04:10:11;;;;;;;9.23;8.43;;;;;;;18.61;86.08;95529.34;6213073;23;20501;-88
2023/06/11 04:12:37;;;;;;;8.82;8.13;;;;;;;18.79;84.75;95531.03;6213263;23;20173;-87
2023/06/11 04:15:04;;;;;;;9.63;8.73;;;;;;;18.74;85.00;95534.31;6212982;23;20188;-86
2023/06/11 04:17:30;;;;;;;9.85;9.05;;;;;;;18.81;84.87;95536.81;6212644;23;20557;-87
2023/06/11 04:19:58;;;;;;;9.27;8.48;;;;;;;18.88;84.36;95545.28;6212055;23;20173;-87
2023/06/11 04:22:25;;;;;;;8.98;8.13;;;;;;;18.90;83.91;95540.63;6213060;23;20516;-87
2023/06/11 04:24:53;;;;;;;10.00;9.20;;;;;;;18.93;83.83;95537.56;6213186;23;20177;-86
2023/06/11 04:27:20;;;;;;;9.25;8.55;;;;;;;18.93;83.26;95542.78;6212547;23;20223;-86
2023/06/11 04:29:48;;;;;;;9.82;8.88;;;;;;;19.02;82.71;95544.03;6212597;23;20258;-87
2023/06/11 04:32:16;;;;;;;9.35;8.50;;;;;;;19.16;82.47;95537.53;6213076;23;20197;-87
2023/06/11 04:34:43;;;;;;;9.02;8.23;;;;;;;19.22;82.53;95541.84;6211956;23;20184;-86
2023/06/11 04:37:11;;;;;;;8.77;8.18;;;;;;;19.30;81.65;95545.88;6211963;23;20255;-86
2023/06/11 04:39:38;;;;;;;8.88;8.18;;;;;;;19.34;81.32;95544.41;6212628;23;20241;-87
2023/06/11 04:42:05;;;;;;;9.63;8.88;;;;;;;19.35;80.93;95543.38;6212621;23;20203;-87
2023/06/11 04:44:31;;;;;;;8.98;8.13;;;;;;;19.45;80.10;95546.19;6212730;23;20181;-87
2023/06/11 04:46:58;;;;;;;9.35;8.38;;;;;;;19.36;79.91;95546.78;6212685;23;20548;-86
2023/06/11 04:49:25;;;;;;;9.07;8.30;;;;;;;19.35;80.24;95550.44;6213046;23;20240;-86
2023/06/11 04:51:52;;;;;;;9.32;8.23;;;;;;;19.18;80.91;95548.53;6211059;23;20858;-88
2023/06/11 04:54:21;;;;;;;9.10;8.35;;;;;;;19.22;80.98;95548.88;6210454;23;20264;-87
2023/06/11 04:56:50;;;;;;;8.65;8.05;;;;;;;19.15;81.20;95556.84;6210014;23;20699;-88
2023/06/11 04:59:23;;;;;;;8.23;7.30;;;;;;;19.16;81.03;95555.81;6210630;23;20165;-88
2023/06/11 05:01:53;;;;;;;8.73;7.97;;;;;;;19.21;80.64;95548.09;6209924;23;20225;-88
2023/06/11 05:04:21;;;;;;;8.65;7.95;;;;;;;19.20;80.27;95553.53;6210592;23;20162;-88
2023/06/11 05:06:52;;;;;;;8.40;7.78;;;;;;;19.27;80.50;95552.38;6209844;23;20239;-88
2023/06/11 05:09:44;;;;;;;;;;;;;;;;;;;;;
2023/06/11 05:12:13;;;;;;;8.02;7.45;;;;;;;19.12;80.90;95559.91;6209535;23;20264;-88
2023/06/11 05:14:41;;;;;;;8.20;7.60;;;;;;;19.15;80.82;95556.84;6209865;23;20169;-88
2023/06/11 05:17:22;;;;;;;8.90;8.10;;;;;;;19.32;79.98;95556.91;6210142;23;20197;-88
2023/06/11 05:19:51;;;;;;;9.02;8.32;;;;;;;19.44;79.23;95562.06;6209624;23;20173;-88
2023/06/11 05:22:18;;;;;;;8.23;7.60;;;;;;;19.43;79.45;95552.69;6209124;23;20189;-88
2023/06/11 05:24:48;;;;;;;8.32;7.63;;;;;;;19.41;79.07;95554.72;6209380;23;20172;-88
2023/06/11 05:27:18;;;;;;;7.97;7.35;;;;;;;19.51;78.99;95555.72;6209519;23;20621;-88
2023/06/11 05:29:47;;;;;;;7.65;7.05;;;;;;;19.50;79.06;95558.56;6209515;23;20173;-88
2023/06/11 05:32:39;;;;;;;8.45;7.65;;;;;;;19.67;78.18;95556.81;6206831;23;20224;-88
2023/06/11 05:35:07;;;;;;;8.05;7.35;;;;;;;19.69;78.07;95554.75;6208047;23;20641;-87
2023/06/11 05:37:40;;;;;;;7.65;7.03;;;;;;;19.64;76.92;95565.91;6206989;23;20216;-86
2023/06/11 05:40:12;;;;;;;8.18;6.90;;;;;;;19.64;77.77;95552.03;6208061;23;20212;-88
2023/06/11 05:42:39;;;;;;;7.47;6.88;;;;;;;19.72;76.44;95556.09;6209125;23;20157;-88
2023/06/11 05:45:09;;;;;;;7.50;6.90;;;;;;;19.87;75.38;95556.38;6210070;23;20240;-87
2023/06/11 05:47:36;;;;;;;7.55;6.90;;;;;;;19.95;75.33;95553.38;6210797;23;20228;-89
2023/06/11 05:50:03;;;;;;;7.43;6.82;;;;;;;19.98;75.00;95558.94;6209991;23;20178;-87
2023/06/11 05:52:32;;;;;;;7.60;6.78;;;;;;;20.04;74.59;95557.19;6210234;23;20256;-89
2023/06/11 05:55:04;;;;;;;7.07;6.40;;;;;;;20.10;74.49;95558.06;6212189;23;20170;-88
2023/06/11 05:58:10;;;;;;;7.15;6.55;;;;;;;20.17;73.22;95554.28;6212393;23;20177;-90
2023/06/11 06:01:02;;;;;;;7.30;6.57;;;;;;;20.28;72.52;95563.06;6211672;23;20280;-88
2023/06/11 06:06:12;;;;;;;7.25;6.65;;;;;;;19.94;71.90;95557.81;6208241;23;20628;-89
2023/06/11 06:08:39;;;;;;;8.40;6.60;;;;;;;19.96;72.49;95560.19;6213528;23;20177;-86
2023/06/11 06:11:10;;;;;;;7.63;6.82;;;;;;;20.00;71.40;95559.50;6212066;23;20247;-90
2023/06/11 06:13:38;;;;;;;7.15;6.55;;;;;;;20.17;71.76;95569.19;6211568;23;20168;-90
2023/06/11 06:16:05;;;;;;;6.40;5.90;;;;;;;20.21;70.00;95563.22;6212751;23;20189;-87
2023/06/11 06:18:33;;;;;;;7.45;6.22;;;;;;;20.33;69.43;95576.22;6214026;23;20277;-86
2023/06/11 06:21:02;;;;;;;6.82;6.28;;;;;;;20.35;68.30;95571.56;6214298;23;20189;-87
2023/06/11 06:23:28;;;;;;;6.53;6.03;;;;;;;20.45;68.50;95571.75;6213609;23;20670;-89
2023/06/11 06:26:19;;;;;;;6.45;5.95;;;;;;;20.47;68.07;95572.28;6211329;23;20174;-90
2023/06/11 06:29:22;;;;;;;6.15;5.65;;;;;;;20.32;68.27;95575.44;6211371;23;20208;-89
2023/06/11 06:32:11;;;;;;;;;;;;;;;;;;;;;
2023/06/11 06:34:38;;;;;;;6.30;5.78;;;;;;;20.38;68.43;95568.50;6088283;23;20243;-89
2023/06/11 06:37:29;;;;;;;;;;;;;;;;;;;;;
2023/06/11 06:40:37;;;;;;;6.30;5.80;;;;;;;20.54;67.31;95569.53;6210002;23;20174;-89
2023/06/11 06:43:09;;;;;;;6.32;5.80;;;;;;;20.60;67.81;95579.00;6081276;23;20180;-89
2023/06/11 06:46:06;;;;;;;6.72;6.13;;;;;;;20.67;66.80;95577.84;6210234;23;20181;-89
2023/06/11 06:49:01;;;;;;;6.82;6.22;;;;;;;20.71;66.20;95570.31;6210548;23;20174;-89
2023/06/11 06:51:44;;;;;;;6.63;6.13;;;;;;;20.62;66.90;95582.97;6213410;23;20197;-88
2023/06/11 06:54:22;;;;;;;7.07;5.70;;;;;;;20.58;66.61;95583.72;6212570;23;20237;-88
2023/06/11 06:57:12;;;;;;;6.63;5.97;;;;;;;20.57;66.86;95576.91;6213145;23;20531;-89
2023/06/11 06:59:41;;;;;;;6.07;5.57;;;;;;;20.73;66.97;95583.94;6212930;23;20154;-88
2023/06/11 07:02:37;;;;;;;6.18;5.68;;;;;;;20.82;66.17;95579.88;6212466;23;20284;-87
2023/06/11 07:05:13;;;;;;;7.00;5.88;;;;;;;20.89;66.44;95577.88;6214320;23;20669;-87
2023/06/11 07:07:46;;;;;;;6.60;6.00;;;;;;;21.13;66.67;95578.47;6213221;23;20161;-88
2023/06/11 07:10:24;;;;;;;6.50;6.00;;;;;;;21.19;66.28;95582.72;6213416;23;20181;-88
2023/06/11 07:16:11;;;;;;;6.47;5.97;;;;;;;21.16;65.48;95585.84;6212377;23;20170;-87
2023/06/11 07:21:40;;;;;;;6.10;5.63;;;;;;;21.43;65.03;95591.16;6213533;23;20200;-87
2023/06/11 07:24:20;;;;;;;6.35;5.75;;;;;;;21.43;64.21;95593.00;6213452;23;20161;-87
2023/06/11 07:26:57;;;;;;;6.32;5.72;;;;;;;21.47;63.48;95591.47;6213826;23;20199;-87
2023/06/11 07:29:27;;;;;;;6.00;5.50;;;;;;;21.32;63.04;95595.50;6213498;23;20637;-87
2023/06/11 07:32:03;;;;;;;6.30;5.80;;;;;;;21.38;63.03;95593.72;6213880;23;20251;-86
2023/06/11 07:34:34;;;;;;;6.65;6.15;;;;;;;21.49;62.79;95595.44;6213502;23;20161;-88
2023/06/11 07:37:09;;;;;;;6.78;6.18;;;;;;;21.50;63.14;95597.03;6213409;23;20158;-88
2023/06/11 07:39:51;;;;;;;6.55;5.95;;;;;;;21.42;62.23;95591.41;6212239;23;20751;-87
2023/06/11 07:42:23;;;;;;;6.38;5.88;;;;;;;21.49;62.16;95592.03;6213746;23;20521;-87
2023/06/11 07:45:01;;;;;;;5.68;5.28;;;;;;;21.80;62.37;95590.53;6213135;23;20177;-87
2023/06/11 07:50:12;;;;;;;5.85;4.85;;;;;;;21.70;60.11;95589.41;6212502;23;20565;-87
2023/06/11 07:52:44;;;;;;;5.22;4.80;;;;;;;21.72;60.15;95586.53;6212856;23;20157;-88
2023/06/11 07:55:22;;;;;;;5.03;4.63;;;;;;;21.91;59.30;95589.63;6213727;23;20166;-88
2023/06/11 07:57:52;;;;;;;5.15;4.75;;;;;;;22.02;58.60;95592.09;6212835;23;20567;-87
2023/06/11 08:00:29;;;;;;;4.93;4.43;;;;;;;22.26;58.36;95584.72;6213063;23;20166;-86
2023/06/11 08:03:05;;;;;;;5.38;4.80;;;;;;;22.36;57.34;95579.53;6212666;23;20216;-87
2023/06/11 08:05:39;;;;;;;5.07;4.63;;;;;;;22.38;56.48;95584.53;6212546;23;20591;-87
2023/06/11 08:13:54;;;;;;;5.35;4.85;;;;;;;22.75;56.08;95581.94;6158943;23;20177;-87
2023/06/11 08:16:31;;;;;;;6.50;4.63;;;;;;;22.73;55.78;95576.13;6212634;23;20224;-87
2023/06/11 08:21:42;;;;;;;5.38;4.88;;;;;;;23.22;56.76;95575.94;6210421;23;20193;-88
2023/06/11 08:24:35;;;;;;;5.18;4.68;;;;;;;23.19;53.66;95577.22;6214438;23;20177;-89
2023/06/11 08:30:06;;;;;;;8.07;7.38;;;;;;;22.89;54.09;95577.88;6196388;23;20177;-88
2023/06/11 08:32:53;;;;;;;7.15;6.57;;;;;;;22.93;53.98;95576.28;6209833;23;20173;-87
2023/06/11 08:35:47;;;;;;;5.80;5.18;;;;;;;23.13;53.69;95582.69;6211165;23;20173;-87
2023/06/11 08:38:22;;;;;;;4.60;4.30;;;;;;;22.95;53.26;95578.66;6157921;23;20272;-87
2023/06/11 08:41:19;;;;;;;4.97;4.57;;;;;;;22.82;52.69;95581.75;6211812;23;20204;-88
2023/06/11 08:43:45;;;;;;;4.50;4.13;;;;;;;22.91;52.76;95582.84;6195021;23;20197;-83
2023/06/11 08:46:14;;;;;;;5.10;4.57;;;;;;;23.11;52.65;95577.69;6211689;23;20264;-88
2023/06/11 08:48:45;;;;;;;4.45;4.10;;;;;;;23.26;52.53;95579.63;6213363;23;20224;-88
2023/06/11 08:51:17;;;;;;;5.07;4.57;;;;;;;23.23;52.21;95574.88;6212493;23;20232;-89
2023/06/11 08:53:52;;;;;;;5.10;4.70;;;;;;;23.08;53.01;95576.41;6211947;23;20208;-88
2023/06/11 08:56:37;;;;;;;4.90;4.50;;;;;;;22.96;53.06;95580.25;6212323;23;20177;-88
2023/06/11 08:59:09;;;;;;;4.70;4.30;;;;;;;23.19;51.76;95573.81;6211085;23;20189;-88
2023/06/11 09:01:50;;;;;;;4.47;4.18;;;;;;;23.57;51.13;95576.09;6210528;23;20544;-88
2023/06/11 09:04:24;;;;;;;4.25;3.95;;;;;;;23.69;50.02;95570.59;6213013;23;20221;-88
2023/06/11 09:06:58;;;;;;;4.25;3.95;;;;;;;23.76;49.71;95576.41;6212258;23;20179;-88
2023/06/11 09:09:25;;;;;;;4.95;4.45;;;;;;;23.81;50.30;95575.63;6213901;23;20239;-88
2023/06/11 09:11:53;;;;;;;4.38;3.97;;;;;;;24.05;49.96;95569.63;6220759;23;20208;-87
2023/06/11 09:14:20;;;;;;;4.40;4.03;;;;;;;24.24;49.66;95572.59;6220160;23;20199;-87
2023/06/11 09:16:48;;;;;;;4.40;4.10;;;;;;;24.36;48.38;95572.31;6216760;23;20188;-88
2023/06/11 09:19:17;;;;;;;4.50;4.10;;;;;;;24.33;47.77;95564.94;6215705;23;20555;-88
2023/06/11 09:21:51;;;;;;;5.10;4.25;;;;;;;24.14;47.73;95583.06;6214871;23;20197;-88
2023/06/11 09:24:19;;;;;;;4.07;3.72;;;;;;;23.98;48.09;95577.00;6212597;23;20644;-88
2023/06/11 09:26:54;;;;;;;4.93;3.95;;;;;;;24.02;48.71;95585.94;6212660;23;20177;-88
2023/06/11 09:29:21;;;;;;;4.25;3.95;;;;;;;24.18;47.70;95573.59;6212683;23;20615;-89
2023/06/11 09:31:49;;;;;;;4.00;3.70;;;;;;;24.31;48.50;95580.19;6213930;23;20201;-87
2023/06/11 09:34:21;;;;;;;3.97;3.67;;;;;;;24.53;47.37;95572.84;6211801;23;20545;-88
2023/06/11 09:36:51;;;;;;;3.80;3.50;;;;;;;24.54;47.25;95577.03;6211076;23;20200;-87
2023/06/11 09:39:18;;;;;;;7.22;3.50;;;;;;;24.62;46.36;95588.91;6209574;23;20197;-89
2023/06/11 09:41:51;;;;;;;3.90;3.60;;;;;;;24.48;45.80;95575.47;6211164;23;20208;-88
2023/06/11 09:44:19;;;;;;;4.00;3.70;;;;;;;24.68;46.59;95572.81;6212292;23;20168;-88
2023/06/11 09:46:47;;;;;;;6.10;5.60;;;;;;;24.95;45.79;95585.72;6212214;23;20162;-89
2023/06/11 09:49:15;;;;;;;11.63;10.63;;;;;;;24.96;45.99;95579.41;6213330;23;20200;-88
2023/06/11 09:52:17;;;;;;;4.65;4.30;;;;;;;24.73;45.24;95579.94;6214119;23;20193;-88
2023/06/11 09:55:07;;;;;;;4.75;4.35;;;;;;;25.02;46.29;95590.69;6201521;23;20441;-88
2023/06/11 09:57:36;;;;;;;4.20;3.90;;;;;;;25.46;44.42;95582.91;6211562;23;20158;-88
2023/06/11 10:00:29;;;;;;;4.05;3.75;;;;;;;25.54;43.86;95586.84;6212977;23;20251;-88
2023/06/11 10:02:57;;;;;;;4.88;3.97;;;;;;;25.36;44.55;95580.34;6158329;23;20182;-88
2023/06/11 10:05:45;;;;;;;4.38;4.07;;;;;;;25.27;44.93;95588.00;6212647;23;20201;-87
2023/06/11 10:08:23;;;;;;;4.22;3.92;;;;;;;25.01;44.08;95597.03;6210718;23;20277;-88
2023/06/11 10:11:07;;;;;;;3.55;3.25;;;;;;;25.10;44.32;95588.31;6212168;23;20215;-88
2023/06/11 10:13:59;;;;;;;4.20;3.90;;;;;;;25.15;44.00;95582.25;6214314;23;20228;-88
2023/06/11 10:17:22;;;;;;;7.50;6.90;;;;;;;25.44;44.10;95583.19;6141477;23;20204;-88
2023/06/11 10:20:13;;;;;;;;;;;;;;;;;;;;;
2023/06/11 10:22:41;;;;;;;5.00;4.50;;;;;;;26.20;42.44;95584.66;6200551;23;20253;-89
2023/06/11 10:28:04;;;;;;;4.53;4.10;;;;;;;26.25;40.25;95579.34;6208052;23;20177;-88
2023/06/11 10:33:36;;;;;;;4.22;3.72;;;;;;;26.21;40.69;95577.50;6212203;23;20252;-88
2023/06/11 10:36:05;;;;;;;3.20;3.00;;;;;;;26.37;40.47;95579.00;6214044;23;20190;-88
2023/06/11 10:38:38;;;;;;;4.05;3.70;;;;;;;26.24;40.46;95592.81;6211975;23;20201;-88
2023/06/11 10:41:05;;;;;;;3.95;3.53;;;;;;;26.19;40.33;95584.91;6212251;23;20193;-89
2023/06/11 10:43:32;;;;;;;3.58;3.38;;;;;;;26.29;41.01;95582.22;6212516;23;20177;-88
2023/06/11 10:46:03;;;;;;;3.80;3.42;;;;;;;26.17;40.25;95590.47;6211388;23;20209;-89
2023/06/11 10:48:31;;;;;;;13.52;3.45;;;;;;;26.05;40.94;95582.13;6212679;23;20276;-88
2023/06/11 10:51:05;;;;;;;4.55;4.10;;;;;;;26.27;40.18;95595.69;6212121;23;20244;-88
2023/06/11 10:53:39;;;;;;;4.93;3.53;;;;;;;26.34;39.40;95580.38;6210796;23;20181;-88
2023/06/11 10:56:06;;;;;;;4.35;3.38;;;;;;;26.33;39.04;95585.91;6212388;23;20176;-89
2023/06/11 10:58:34;;;;;;;5.10;3.80;;;;;;;26.58;39.97;95577.78;6214572;23;20173;-89
2023/06/11 11:01:00;;;;;;;4.55;3.78;;;;;;;26.69;39.13;95581.91;6213048;23;20197;-88
2023/06/11 11:03:30;;;;;;;3.92;3.63;;;;;;;26.53;38.60;95583.13;6212950;23;20177;-89
2023/06/11 11:06:03;;;;;;;3.65;3.35;;;;;;;26.37;38.74;95581.63;6213147;23;20744;-89
2023/06/11 11:08:42;;;;;;;4.07;2.97;;;;;;;26.57;39.19;95573.56;6212895;23;20528;-90
2023/06/11 11:11:09;;;;;;;4.60;3.17;;;;;;;26.76;38.63;95569.16;6210277;23;20193;-89
2023/06/11 11:16:21;;;;;;;3.50;3.30;;;;;;;26.82;37.77;95570.69;6171697;23;20177;-90
2023/06/11 11:18:56;;;;;;;3.50;3.20;;;;;;;26.90;38.51;95568.53;6211630;23;20193;-91
2023/06/11 11:21:29;;;;;;;3.42;3.20;;;;;;;27.12;37.89;95574.94;6212639;23;20185;-90
2023/06/11 11:23:56;;;;;;;3.75;3.45;;;;;;;27.31;38.00;95574.19;6215053;23;20562;-87
2023/06/11 11:26:22;;;;;;;6.38;5.82;;;;;;;27.54;37.72;95565.41;6216405;23;20178;-89
2023/06/11 11:28:52;;;;;;;3.42;3.13;;;;;;;27.17;36.45;95566.91;6215339;23;20178;-89
2023/06/11 11:31:21;;;;;;;3.50;3.20;;;;;;;27.14;36.56;95561.41;6215899;23;20243;-89
2023/06/11 11:33:48;;;;;;;3.55;3.30;;;;;;;27.13;37.02;95557.97;6216675;23;20417;-89
2023/06/11 11:36:14;;;;;;;4.00;3.60;;;;;;;27.34;37.28;95560.38;6216446;23;20185;-89
2023/06/11 11:38:45;;;;;;;6.60;3.60;;;;;;;27.32;36.90;95578.41;6217132;23;20701;-89
2023/06/11 11:41:11;;;;;;;4.03;3.35;;;;;;;27.24;36.54;95569.22;6217705;23;20201;-89
2023/06/11 11:43:40;;;;;;;3.50;3.30;;;;;;;26.73;36.64;95566.31;6216727;23;20162;-89
2023/06/11 11:46:17;;;;;;;3.45;3.15;;;;;;;26.77;36.91;95569.94;6217047;23;20276;-89
2023/06/11 11:48:43;;;;;;;3.60;3.30;;;;;;;26.77;35.61;95568.09;6216135;23;20676;-88
2023/06/11 11:51:13;;;;;;;3.22;3.00;;;;;;;26.87;36.13;95566.44;6216663;23;20972;-88
2023/06/11 11:53:43;;;;;;;3.60;3.30;;;;;;;27.26;36.55;95561.81;6215995;23;20219;-88
2023/06/11 11:56:10;;;;;;;5.53;3.35;;;;;;;27.21;36.25;95550.50;6215520;23;20241;-89
2023/06/11 11:58:38;;;;;;;11.25;10.25;;;;;;;27.15;37.03;95555.03;6215180;23;20239;-88
2023/06/11 12:01:08;;;;;;;4.30;3.90;;;;;;;26.60;37.33;95556.38;6214110;23;20793;-88
2023/06/11 12:03:35;;;;;;;3.78;3.47;;;;;;;26.17;37.99;95555.41;6215325;23;20246;-88
2023/06/11 12:06:03;;;;;;;3.38;3.08;;;;;;;26.30;38.14;95560.84;6215439;23;20177;-88
2023/06/11 12:08:30;;;;;;;3.75;3.45;;;;;;;26.57;35.90;95549.78;6212614;23;20177;-87
2023/06/11 12:10:59;;;;;;;4.88;3.40;;;;;;;26.87;35.99;95546.06;6214624;23;20695;-88
2023/06/11 12:13:29;;;;;;;3.30;3.10;;;;;;;27.16;35.80;95544.19;6214963;23;20184;-88
2023/06/11 12:15:55;;;;;;;4.72;3.35;;;;;;;27.43;36.12;95550.75;6213763;23;20173;-88
2023/06/11 12:18:22;;;;;;;3.65;3.35;;;;;;;27.57;36.05;95546.38;6214641;23;20177;-87
2023/06/11 12:20:49;;;;;;;4.50;3.35;;;;;;;27.64;35.82;95543.38;6215289;23;20197;-88
2023/06/11 12:23:20;;;;;;;3.83;3.25;;;;;;;27.89;35.58;95547.53;6213549;23;20185;-88
2023/06/11 12:29:08;;;;;;;4.28;3.40;;;;;;;27.39;35.32;95541.81;6187204;23;20265;-87
2023/06/11 12:31:36;;;;;;;3.60;3.35;;;;;;;27.35;36.32;95538.94;6191854;23;20197;-87
2023/06/11 12:34:09;;;;;;;3.20;3.00;;;;;;;27.58;36.56;95547.16;6212156;23;20180;-87
2023/06/11 12:36:43;;;;;;;5.18;3.50;;;;;;;27.65;36.21;95534.38;6212478;23;20158;-89